createdAt,value
2019-02-28T00:02:26.582Z,73.38
2019-02-28T00:04:57.122Z,73.86
2019-02-28T00:07:27.315Z,73.95
2019-02-28T00:09:58.240Z,74.21
2019-02-28T00:12:28.442Z,74.03
2019-02-28T00:14:59.377Z,73.89
2019-02-28T00:17:30.042Z,74.08
2019-02-28T00:20:00.364Z,74.10
2019-02-28T00:22:30.688Z,74.47
2019-02-28T00:25:01.128Z,74.54
2019-02-28T00:27:32.847Z,74.77
2019-02-28T00:30:05.966Z,74.68
2019-02-28T00:32:35.219Z,74.71
2019-02-28T00:35:05.735Z,74.72
2019-02-28T00:37:35.926Z,74.67
2019-02-28T00:40:07.462Z,74.20
2019-02-28T00:42:37.755Z,74.28
2019-02-28T00:45:08.995Z,74.58
2019-02-28T00:47:39.207Z,74.83
2019-02-28T00:50:09.722Z,75.11
2019-02-28T00:52:39.856Z,75.64
2019-02-28T00:55:10.067Z,75.98
2019-02-28T00:57:40.188Z,76.13
2019-02-28T01:00:11.394Z,76.48
2019-02-28T01:02:41.746Z,76.41
2019-02-28T01:05:11.893Z,76.43
2019-02-28T01:07:42.139Z,76.35
2019-02-28T01:10:12.825Z,76.58
2019-02-28T01:12:44.137Z,76.36
2019-02-28T01:15:15.328Z,76.48
2019-02-28T01:17:45.551Z,76.59
2019-02-28T01:20:16.690Z,76.84
2019-02-28T01:22:47.030Z,77.08
2019-02-28T01:25:17.202Z,77.39
2019-02-28T01:27:47.333Z,77.32
2019-02-28T01:30:17.672Z,77.54
2019-02-28T01:32:50.914Z,77.46
2019-02-28T01:35:19.963Z,77.56
2019-02-28T01:37:52.402Z,77.58
2019-02-28T01:40:22.066Z,77.64
2019-02-28T01:42:54.898Z,78.03
2019-02-28T01:45:26.442Z,78.74
2019-02-28T01:47:56.748Z,79.41
2019-02-28T01:50:29.699Z,79.96
2019-02-28T01:52:59.012Z,80.57
2019-02-28T01:55:30.194Z,79.81
2019-02-28T01:58:00.397Z,79.27
2019-02-28T02:00:30.633Z,79.34
2019-02-28T02:03:00.708Z,79.57
2019-02-28T02:05:30.953Z,79.53
2019-02-28T02:08:01.146Z,79.83
2019-02-28T02:10:31.416Z,80.74
2019-02-28T02:13:03.191Z,81.29
2019-02-28T02:15:33.732Z,80.97
2019-02-28T02:18:06.423Z,81.18
2019-02-28T02:20:36.101Z,81.12
2019-02-28T02:23:06.222Z,81.32
2019-02-28T02:25:37.518Z,81.40
2019-02-28T02:28:08.563Z,81.32
2019-02-28T02:30:39.160Z,81.86
2019-02-28T02:33:13.666Z,81.40
2019-02-28T02:35:42.777Z,81.41
2019-02-28T02:38:13.276Z,82.26
2019-02-28T02:40:45.173Z,81.86
2019-02-28T02:43:15.564Z,81.42
2019-02-28T02:45:45.927Z,82.49
2019-02-28T02:48:16.269Z,82.37
2019-02-28T02:50:46.447Z,81.70
2019-02-28T02:53:16.737Z,81.33
2019-02-28T02:55:46.851Z,82.12
2019-02-28T02:58:16.996Z,82.69
2019-02-28T03:00:51.136Z,82.67
2019-02-28T03:03:19.141Z,83.21
2019-02-28T03:05:49.374Z,83.82
2019-02-28T03:08:19.777Z,82.91
2019-02-28T03:10:51.810Z,82.82
2019-02-28T03:13:21.821Z,82.57
2019-02-28T03:15:52.064Z,82.53
2019-02-28T03:18:22.361Z,82.58
2019-02-28T03:20:52.675Z,82.65
2019-02-28T03:23:22.991Z,83.02
2019-02-28T03:25:53.130Z,83.11
2019-02-28T03:28:23.269Z,82.71
2019-02-28T03:30:53.408Z,82.82
2019-02-28T03:33:27.680Z,83.37
2019-02-28T03:35:55.587Z,83.58
2019-02-28T03:38:25.770Z,83.43
2019-02-28T03:40:56.282Z,83.78
2019-02-28T03:43:26.481Z,84.04
2019-02-28T03:45:56.733Z,83.83
2019-02-28T03:48:26.957Z,83.74
2019-02-28T03:50:57.241Z,83.68
2019-02-28T03:53:27.428Z,83.51
2019-02-28T03:55:57.671Z,83.48
2019-02-28T03:58:28.272Z,83.64
2019-02-28T04:01:08.898Z,83.93
2019-02-28T04:03:34.936Z,84.17
2019-02-28T04:06:05.206Z,83.92
2019-02-28T04:08:35.352Z,83.93
2019-02-28T04:11:05.901Z,84.30
2019-02-28T04:13:36.385Z,84.27
2019-02-28T04:16:09.466Z,84.53
2019-02-28T04:18:43.912Z,84.53
2019-02-28T04:21:12.229Z,84.63
2019-02-28T04:23:42.571Z,84.73
2019-02-28T04:26:13.124Z,84.72
2019-02-28T04:28:43.374Z,84.74
2019-02-28T04:31:18.324Z,84.65
2019-02-28T04:33:51.765Z,84.68
2019-02-28T04:36:23.132Z,85.03
2019-02-28T04:38:53.335Z,85.24
2019-02-28T04:41:23.603Z,84.99
2019-02-28T04:43:53.689Z,84.41
2019-02-28T04:46:23.863Z,84.42
2019-02-28T04:48:54.053Z,84.75
2019-02-28T04:51:26.501Z,84.95
2019-02-28T04:53:56.767Z,84.84
2019-02-28T04:56:27.097Z,85.41
2019-02-28T04:58:59.514Z,85.34
2019-02-28T05:01:29.644Z,85.33
2019-02-28T05:04:02.335Z,85.36
2019-02-28T05:06:32.043Z,85.76
2019-02-28T05:09:02.202Z,85.79
2019-02-28T05:11:34.248Z,85.76
2019-02-28T05:14:04.639Z,85.89
2019-02-28T05:16:34.903Z,86.20
2019-02-28T05:19:05.128Z,86.16
2019-02-28T05:21:35.462Z,86.10
2019-02-28T05:24:07.716Z,86.07
2019-02-28T05:26:37.670Z,86.13
2019-02-28T05:29:11.906Z,86.13
2019-02-28T05:31:40.969Z,86.17
2019-02-28T05:34:13.258Z,86.29
2019-02-28T05:36:43.212Z,86.05
2019-02-28T05:39:13.327Z,85.93
2019-02-28T05:41:48.962Z,86.00
2019-02-28T05:44:15.726Z,86.17
2019-02-28T05:46:46.256Z,86.21
2019-02-28T05:49:16.425Z,86.57
2019-02-28T05:51:46.608Z,86.92
2019-02-28T05:54:17.209Z,86.87
2019-02-28T05:56:47.644Z,86.92
2019-02-28T05:59:17.947Z,87.10
2019-02-28T06:01:48.209Z,86.79
2019-02-28T06:04:18.329Z,86.49
2019-02-28T06:06:51.286Z,86.44
2019-02-28T06:09:20.712Z,86.52
2019-02-28T06:11:50.944Z,86.70
2019-02-28T06:14:26.615Z,86.85
2019-02-28T06:16:53.279Z,86.87
2019-02-28T06:19:23.493Z,86.84
2019-02-28T06:21:56.436Z,87.11
2019-02-28T06:24:25.622Z,87.00
2019-02-28T06:26:57.018Z,86.92
2019-02-28T06:29:27.453Z,86.86
2019-02-28T06:31:57.591Z,86.86
2019-02-28T06:34:28.801Z,86.73
2019-02-28T06:37:00.361Z,86.67
2019-02-28T06:39:31.049Z,86.54
2019-02-28T06:42:01.216Z,86.46
2019-02-28T06:44:31.500Z,86.31
2019-02-28T06:47:01.721Z,86.26
2019-02-28T06:49:32.008Z,86.39
2019-02-28T06:52:02.213Z,86.39
2019-02-28T06:54:32.424Z,86.45
2019-02-28T06:57:03.177Z,86.68
2019-02-28T06:59:36.129Z,86.82
2019-02-28T07:02:05.747Z,86.86
2019-02-28T07:04:35.922Z,87.19
2019-02-28T07:07:07.350Z,87.20
2019-02-28T07:09:38.198Z,86.86
2019-02-28T07:12:08.384Z,86.57
2019-02-28T07:14:38.522Z,86.35
2019-02-28T07:17:10.711Z,86.31
2019-02-28T07:19:40.938Z,86.28
2019-02-28T07:22:11.124Z,86.29
2019-02-28T07:24:41.329Z,86.18
2019-02-28T07:27:11.645Z,86.58
2019-02-28T07:29:42.745Z,86.68
2019-02-28T07:32:13.858Z,86.72
2019-02-28T07:34:44.260Z,86.56
2019-02-28T07:37:18.605Z,86.56
2019-02-28T07:39:46.577Z,86.23
2019-02-28T07:42:17.754Z,85.93
2019-02-28T07:44:48.053Z,85.87
2019-02-28T07:47:18.450Z,85.53
2019-02-28T07:49:50.203Z,84.90
2019-02-28T07:52:21.000Z,84.73
2019-02-28T07:54:53.376Z,84.42
2019-02-28T07:57:23.479Z,84.73
2019-02-28T07:59:53.682Z,84.84
2019-02-28T08:02:24.143Z,83.35
2019-02-28T08:04:55.729Z,82.61
2019-02-28T08:07:26.442Z,80.62
2019-02-28T08:09:58.100Z,78.76
2019-02-28T08:12:30.820Z,78.76
2019-02-28T08:15:00.713Z,77.23
2019-02-28T08:17:31.096Z,75.02
2019-02-28T08:20:01.256Z,72.71
2019-02-28T08:22:32.395Z,69.45
2019-02-28T08:25:02.724Z,67.16
2019-02-28T08:27:32.980Z,63.79
2019-02-28T08:30:03.305Z,58.80
2019-02-28T08:32:34.064Z,54.18
2019-02-28T08:35:05.328Z,49.22
2019-02-28T08:37:35.649Z,44.70
2019-02-28T08:40:08.890Z,42.04
2019-02-28T08:42:39.842Z,40.20
2019-02-28T08:45:11.929Z,38.61
2019-02-28T08:47:42.110Z,35.46
2019-02-28T08:50:19.076Z,33.85
2019-02-28T08:52:48.499Z,34.51
2019-02-28T08:55:27.892Z,33.46
2019-02-28T08:57:54.727Z,31.23
2019-02-28T09:00:22.969Z,31.41
2019-02-28T09:02:53.856Z,30.45
2019-02-28T09:05:26.205Z,28.77
2019-02-28T09:07:58.221Z,27.32
2019-02-28T09:10:28.570Z,27.50
2019-02-28T09:12:58.787Z,26.00
2019-02-28T09:15:31.079Z,25.46
2019-02-28T09:18:01.403Z,24.80
2019-02-28T09:20:31.648Z,23.19
2019-02-28T09:23:03.136Z,22.82
2019-02-28T09:25:33.781Z,22.40
2019-02-28T09:28:04.061Z,21.40
2019-02-28T09:30:37.367Z,20.91
2019-02-28T09:33:07.898Z,20.45
2019-02-28T09:35:38.569Z,20.34
2019-02-28T09:38:13.449Z,20.32
2019-02-28T09:40:41.487Z,19.73
2019-02-28T09:43:11.835Z,20.17
2019-02-28T09:45:43.449Z,20.83
2019-02-28T09:48:14.280Z,21.45
2019-02-28T09:50:44.630Z,20.73
2019-02-28T09:53:16.463Z,20.60
2019-02-28T09:55:47.443Z,21.03
2019-02-28T09:58:18.003Z,20.02
2019-02-28T10:00:50.414Z,19.83
2019-02-28T10:03:21.051Z,18.78
2019-02-28T10:05:51.445Z,19.83
2019-02-28T10:08:22.015Z,19.50
2019-02-28T10:10:55.888Z,19.89
2019-02-28T10:13:25.016Z,20.31
2019-02-28T10:15:55.470Z,19.23
2019-02-28T10:18:26.130Z,19.67
2019-02-28T10:20:59.094Z,18.93
2019-02-28T10:23:29.159Z,18.55
2019-02-28T10:25:59.887Z,19.01
2019-02-28T10:28:30.448Z,18.96
2019-02-28T10:31:01.335Z,19.14
2019-02-28T10:33:32.091Z,19.19
2019-02-28T10:36:02.704Z,18.26
2019-02-28T10:38:33.959Z,18.98
2019-02-28T10:41:04.713Z,20.14
2019-02-28T10:43:35.234Z,19.87
2019-02-28T10:46:05.825Z,19.88
2019-02-28T10:48:41.871Z,20.51
2019-02-28T10:51:13.906Z,18.65
2019-02-28T10:53:40.762Z,20.08
2019-02-28T10:56:10.997Z,20.40
2019-02-28T10:58:41.298Z,20.26
2019-02-28T11:01:12.754Z,20.01
2019-02-28T11:03:43.490Z,18.80
2019-02-28T11:06:14.095Z,18.23
2019-02-28T11:08:47.547Z,18.83
2019-02-28T11:11:17.356Z,18.08
2019-02-28T11:13:47.588Z,17.48
2019-02-28T11:16:20.527Z,17.29
2019-02-28T11:18:51.428Z,18.17
2019-02-28T11:21:21.991Z,19.08
2019-02-28T11:23:52.309Z,18.44
2019-02-28T11:26:22.552Z,18.43
2019-02-28T11:28:53.100Z,18.43
2019-02-28T11:31:25.821Z,18.78
2019-02-28T11:33:56.044Z,17.14
2019-02-28T11:36:26.726Z,15.83
2019-02-28T11:38:57.078Z,15.66
2019-02-28T11:41:27.439Z,17.23
2019-02-28T11:43:57.827Z,15.54
2019-02-28T11:46:28.553Z,17.29
2019-02-28T11:48:58.710Z,16.20
2019-02-28T11:51:30.338Z,13.59
2019-02-28T11:54:00.599Z,16.57
2019-02-28T11:56:30.796Z,17.35
2019-02-28T11:59:00.975Z,17.65
2019-02-28T12:01:31.255Z,16.86
2019-02-28T12:04:02.957Z,18.06
2019-02-28T12:06:34.477Z,16.14
2019-02-28T12:09:06.091Z,16.23
2019-02-28T12:11:37.213Z,16.48
2019-02-28T12:14:07.647Z,19.16
2019-02-28T12:16:37.924Z,19.16
2019-02-28T12:19:08.221Z,17.15
2019-02-28T12:21:38.893Z,17.27
2019-02-28T12:24:09.406Z,17.56
2019-02-28T12:26:39.733Z,17.49
2019-02-28T12:29:12.967Z,17.80
2019-02-28T12:31:42.116Z,16.79
2019-02-28T12:34:12.443Z,16.38
2019-02-28T12:36:43.116Z,16.43
2019-02-28T12:39:13.715Z,17.49
2019-02-28T12:41:44.531Z,15.66
2019-02-28T12:44:15.386Z,16.84
2019-02-28T12:46:46.665Z,15.82
2019-02-28T12:49:21.806Z,15.27
2019-02-28T12:51:49.356Z,14.09
2019-02-28T12:54:19.611Z,13.96
2019-02-28T12:56:50.118Z,13.97
2019-02-28T12:59:21.467Z,13.75
2019-02-28T13:01:51.985Z,13.35
2019-02-28T13:04:22.370Z,13.20
2019-02-28T13:06:55.506Z,13.47
2019-02-28T13:09:24.679Z,13.51
2019-02-28T13:11:54.967Z,13.66
2019-02-28T13:14:25.327Z,15.19
2019-02-28T13:16:57.604Z,13.94
2019-02-28T13:19:27.691Z,15.52
2019-02-28T13:21:58.066Z,16.25
2019-02-28T13:24:28.728Z,16.41
2019-02-28T13:26:58.971Z,18.00
2019-02-28T13:29:32.424Z,18.70
2019-02-28T13:32:01.719Z,18.46
2019-02-28T13:34:33.255Z,19.49
2019-02-28T13:37:03.834Z,18.36
2019-02-28T13:39:37.650Z,17.94
2019-02-28T13:42:08.327Z,17.49
2019-02-28T13:44:38.797Z,19.09
2019-02-28T13:47:10.712Z,17.73
2019-02-28T13:49:41.689Z,17.32
2019-02-28T13:52:19.020Z,17.72
2019-02-28T13:54:44.760Z,17.57
2019-02-28T13:57:15.291Z,18.87
2019-02-28T13:59:46.791Z,18.59
2019-02-28T14:02:17.467Z,18.88
2019-02-28T14:04:48.336Z,19.28
2019-02-28T14:07:18.866Z,20.05
2019-02-28T14:09:49.594Z,19.90
2019-02-28T14:12:21.668Z,19.61
2019-02-28T14:14:52.508Z,19.22
2019-02-28T14:17:23.228Z,18.87
2019-02-28T14:19:53.862Z,19.16
2019-02-28T14:22:24.769Z,20.06
2019-02-28T14:24:55.614Z,19.48
2019-02-28T14:27:26.315Z,19.09
2019-02-28T14:29:57.942Z,20.04
2019-02-28T14:32:29.458Z,20.39
2019-02-28T14:35:00.812Z,19.57
2019-02-28T14:37:32.844Z,20.26
2019-02-28T14:40:03.284Z,19.61
2019-02-28T14:42:34.058Z,20.29
2019-02-28T14:45:07.167Z,21.71
2019-02-28T14:47:37.553Z,21.17
2019-02-28T14:50:10.400Z,22.23
2019-02-28T14:52:41.832Z,23.70
2019-02-28T14:55:15.035Z,26.35
2019-02-28T14:57:48.884Z,25.88
2019-02-28T15:00:20.541Z,25.89
2019-02-28T15:02:51.306Z,26.66
2019-02-28T15:05:21.817Z,26.63
2019-02-28T15:07:52.505Z,27.87
2019-02-28T15:10:22.969Z,28.76
2019-02-28T15:12:55.371Z,28.26
2019-02-28T15:15:26.166Z,28.81
2019-02-28T15:17:56.699Z,29.01
2019-02-28T15:20:31.716Z,29.43
2019-02-28T15:22:59.800Z,29.79
2019-02-28T15:25:30.084Z,29.38
2019-02-28T15:28:00.383Z,30.96
2019-02-28T15:30:33.934Z,31.16
2019-02-28T15:33:04.060Z,32.11
2019-02-28T15:35:34.612Z,31.90
2019-02-28T15:38:05.656Z,31.65
2019-02-28T15:40:37.817Z,31.88
2019-02-28T15:43:08.376Z,31.63
2019-02-28T15:45:38.647Z,32.11
2019-02-28T15:48:08.951Z,32.41
2019-02-28T15:50:39.414Z,33.39
2019-02-28T15:53:14.120Z,33.78
2019-02-28T15:55:43.906Z,33.64
2019-02-28T15:58:16.531Z,33.75
2019-02-28T16:00:46.464Z,33.56
2019-02-28T16:03:17.485Z,33.03
2019-02-28T16:05:47.920Z,33.23
2019-02-28T16:08:18.148Z,33.37
2019-02-28T16:10:53.157Z,33.83
2019-02-28T16:13:22.627Z,34.45
2019-02-28T16:15:52.623Z,34.91
2019-02-28T16:18:22.981Z,35.31
2019-02-28T16:20:53.622Z,36.01
2019-02-28T16:23:27.595Z,37.08
2019-02-28T16:25:56.056Z,38.11
2019-02-28T16:28:26.466Z,39.31
2019-02-28T16:30:57.057Z,39.58
2019-02-28T16:33:27.402Z,39.51
2019-02-28T16:35:57.866Z,39.53
2019-02-28T16:38:30.018Z,41.42
2019-02-28T16:41:01.529Z,41.71
2019-02-28T16:43:33.969Z,42.50
2019-02-28T16:46:04.367Z,42.48
2019-02-28T16:48:36.500Z,42.84
2019-02-28T16:51:07.010Z,43.26
2019-02-28T16:53:37.837Z,43.70
2019-02-28T16:56:08.344Z,43.65
2019-02-28T16:58:38.651Z,44.64
2019-02-28T17:01:09.055Z,45.02
2019-02-28T17:03:41.704Z,44.97
2019-02-28T17:06:11.507Z,45.48
2019-02-28T17:08:51.495Z,45.75
2019-02-28T17:11:22.523Z,45.90
2019-02-28T17:14:02.195Z,46.05
2019-02-28T17:16:39.467Z,46.11
2019-02-28T17:19:10.027Z,46.45
2019-02-28T17:21:40.691Z,47.19
2019-02-28T17:24:12.327Z,47.17
2019-02-28T17:26:53.151Z,48.09
2019-02-28T17:29:32.743Z,48.13
2019-02-28T17:32:03.348Z,49.34
2019-02-28T17:34:33.836Z,49.22
2019-02-28T17:37:04.299Z,49.09
2019-02-28T17:39:34.602Z,49.27
2019-02-28T17:42:08.622Z,48.88
2019-02-28T17:44:46.302Z,48.90
2019-02-28T17:47:59.671Z,48.58
2019-02-28T17:50:44.614Z,48.92
2019-02-28T17:54:03.550Z,49.08
2019-02-28T17:57:21.145Z,48.78
2019-02-28T18:00:31.702Z,48.59
2019-02-28T18:03:45.070Z,48.51
2019-02-28T18:06:47.476Z,48.80
2019-02-28T18:09:54.193Z,49.02
2019-02-28T18:13:00.648Z,48.71
2019-02-28T18:16:09.252Z,49.54
2019-02-28T18:19:32.769Z,50.09
2019-02-28T18:22:44.713Z,50.15
2019-02-28T18:25:57.072Z,51.20
2019-02-28T18:29:20.919Z,51.73
2019-02-28T18:31:53.867Z,52.11
2019-02-28T18:34:28.867Z,52.78
2019-02-28T18:36:59.098Z,53.41
2019-02-28T18:39:29.320Z,53.73
2019-02-28T18:41:59.628Z,53.87
2019-02-28T18:44:29.851Z,54.08
2019-02-28T18:47:02.968Z,54.28
2019-02-28T18:49:32.214Z,54.64
2019-02-28T18:52:02.711Z,54.97
2019-02-28T18:54:33.418Z,55.67
2019-02-28T18:57:04.354Z,56.30
2019-02-28T18:59:34.627Z,57.64
2019-02-28T19:02:04.965Z,58.08
2019-02-28T19:04:35.464Z,58.88
2019-02-28T19:07:05.994Z,58.86
2019-02-28T19:09:36.511Z,59.61
2019-02-28T19:12:07.070Z,59.84
2019-02-28T19:14:37.322Z,60.40
2019-02-28T19:17:07.719Z,60.41
2019-02-28T19:19:38.572Z,60.44
2019-02-28T19:22:09.013Z,61.00
2019-02-28T19:24:42.471Z,61.24
2019-02-28T19:27:12.982Z,61.70
2019-02-28T19:29:43.667Z,61.64
2019-02-28T19:32:14.199Z,61.44
2019-02-28T19:34:45.862Z,61.74
2019-02-28T19:37:16.553Z,62.08
2019-02-28T19:39:47.027Z,62.41
2019-02-28T19:42:17.424Z,62.44
2019-02-28T19:44:48.244Z,62.88
2019-02-28T19:47:18.591Z,62.94
2019-02-28T19:49:48.884Z,63.06
2019-02-28T19:52:19.345Z,62.84
2019-02-28T19:54:49.822Z,62.93
2019-02-28T19:57:20.275Z,62.95
2019-02-28T19:59:50.536Z,62.68
2019-02-28T20:02:20.883Z,62.67
2019-02-28T20:04:51.326Z,62.33
2019-02-28T20:07:21.629Z,62.07
2019-02-28T20:09:52.078Z,61.86
2019-02-28T20:12:22.557Z,61.58
2019-02-28T20:14:53.167Z,61.52
2019-02-28T20:17:23.587Z,60.99
2019-02-28T20:19:55.151Z,61.34
2019-02-28T20:22:25.702Z,61.16
2019-02-28T20:24:59.489Z,61.25
2019-02-28T20:27:29.948Z,61.32
2019-02-28T20:30:00.456Z,61.21
2019-02-28T20:32:30.802Z,60.96
2019-02-28T20:35:01.548Z,61.38
2019-02-28T20:37:32.091Z,61.02
2019-02-28T20:40:02.670Z,60.93
2019-02-28T20:42:33.635Z,60.51
2019-02-28T20:45:04.155Z,60.60
2019-02-28T20:47:34.819Z,60.04
2019-02-28T20:50:08.712Z,59.75
2019-02-28T20:52:39.343Z,59.69
2019-02-28T20:55:10.457Z,59.49
2019-02-28T20:57:40.705Z,59.58
2019-02-28T21:00:14.352Z,59.59
2019-02-28T21:02:45.374Z,59.88
2019-02-28T21:05:15.876Z,59.17
2019-02-28T21:07:46.202Z,58.75
2019-02-28T21:10:17.277Z,58.82
2019-02-28T21:12:47.825Z,59.02
2019-02-28T21:15:18.952Z,59.00
2019-02-28T21:17:50.141Z,58.70
2019-02-28T21:20:20.599Z,58.83
2019-02-28T21:22:51.372Z,58.66
2019-02-28T21:25:23.067Z,58.62
2019-02-28T21:27:54.203Z,58.81
2019-02-28T21:30:24.859Z,59.27
2019-02-28T21:32:55.209Z,59.02
2019-02-28T21:35:25.958Z,59.19
2019-02-28T21:37:57.051Z,59.38
2019-02-28T21:40:27.799Z,59.26
2019-02-28T21:42:58.594Z,59.36
2019-02-28T21:45:29.183Z,59.76
2019-02-28T21:47:59.850Z,60.30
2019-02-28T21:50:30.572Z,60.38
2019-02-28T21:53:01.201Z,60.36
2019-02-28T21:55:31.494Z,60.49
2019-02-28T21:58:01.881Z,60.55
2019-02-28T22:00:32.395Z,61.09
2019-02-28T22:03:03.067Z,61.24
2019-02-28T22:05:33.475Z,61.78
2019-02-28T22:08:03.784Z,61.82
2019-02-28T22:10:34.132Z,61.46
2019-02-28T22:13:04.994Z,61.40
2019-02-28T22:15:35.437Z,61.28
2019-02-28T22:18:05.935Z,61.36
2019-02-28T22:20:36.860Z,61.36
2019-02-28T22:23:07.217Z,61.41
2019-02-28T22:25:37.872Z,61.46
2019-02-28T22:28:08.233Z,61.54
2019-02-28T22:31:00.417Z,62.02
2019-02-28T22:33:50.166Z,62.12
2019-02-28T22:36:24.683Z,62.30
2019-02-28T22:38:55.112Z,63.12
2019-02-28T22:41:25.717Z,68.66
2019-02-28T22:43:56.056Z,72.91
2019-02-28T22:46:26.479Z,73.56
2019-02-28T22:48:57.038Z,74.39
2019-02-28T22:51:27.527Z,75.65
2019-02-28T22:53:57.753Z,76.87
2019-02-28T22:56:28.011Z,76.60
2019-02-28T22:58:58.397Z,76.76
2019-02-28T23:01:28.884Z,77.52
2019-02-28T23:03:59.454Z,77.67
2019-02-28T23:06:29.717Z,78.03
2019-02-28T23:09:00.083Z,79.08
2019-02-28T23:11:30.381Z,77.83
2019-02-28T23:14:00.602Z,78.06
2019-02-28T23:16:31.332Z,78.65
2019-02-28T23:19:01.611Z,79.22
2019-02-28T23:21:31.961Z,78.71
2019-02-28T23:24:03.181Z,78.17
2019-02-28T23:26:54.069Z,78.81
2019-02-28T23:29:26.168Z,78.40
2019-02-28T23:32:23.765Z,78.43
2019-02-28T23:34:55.378Z,77.97
2019-02-28T23:37:25.561Z,78.43
2019-02-28T23:39:55.768Z,78.04
2019-02-28T23:42:26.033Z,77.61
2019-02-28T23:44:56.546Z,77.23
2019-02-28T23:47:26.759Z,77.05
2019-02-28T23:49:56.907Z,76.47
2019-02-28T23:52:27.153Z,75.64
2019-02-28T23:54:57.409Z,76.13
2019-02-28T23:57:28.094Z,76.17
2019-02-28T23:59:58.492Z,75.91
